sensor_id;sensor_type;location;lat;lon;timestamp;temperature;humidity
17715;DHT22;8977;50.902;4.314;2022-08-19T00:01:26;24.50;99.90
17715;DHT22;8977;50.902;4.314;2022-08-19T00:03:55;24.50;99.90
17715;DHT22;8977;50.902;4.314;2022-08-19T00:06:22;24.50;99.90
17715;DHT22;8977;50.902;4.314;2022-08-19T00:08:50;24.40;99.90
17715;DHT22;8977;50.902;4.314;2022-08-19T00:11:18;24.40;99.90
17715;DHT22;8977;50.902;4.314;2022-08-19T00:13:46;24.50;99.90
17715;DHT22;8977;50.902;4.314;2022-08-19T00:16:14;24.40;99.90
17715;DHT22;8977;50.902;4.314;2022-08-19T00:18:41;24.40;99.90
17715;DHT22;8977;50.902;4.314;2022-08-19T00:21:08;24.50;99.90
17715;DHT22;8977;50.902;4.314;2022-08-19T00:23:35;24.50;99.90
17715;DHT22;8977;50.902;4.314;2022-08-19T00:26:04;24.50;99.90
17715;DHT22;8977;50.902;4.314;2022-08-19T00:28:31;24.50;99.90
17715;DHT22;8977;50.902;4.314;2022-08-19T00:30:59;24.50;99.90
17715;DHT22;8977;50.902;4.314;2022-08-19T00:33:27;24.50;99.90
17715;DHT22;8977;50.902;4.314;2022-08-19T00:35:55;24.50;99.90
17715;DHT22;8977;50.902;4.314;2022-08-19T00:38:22;24.50;99.90
17715;DHT22;8977;50.902;4.314;2022-08-19T00:40:49;24.50;99.90
17715;DHT22;8977;50.902;4.314;2022-08-19T00:43:21;24.60;99.90
17715;DHT22;8977;50.902;4.314;2022-08-19T00:45:48;24.50;99.90
17715;DHT22;8977;50.902;4.314;2022-08-19T00:48:16;24.50;99.90
17715;DHT22;8977;50.902;4.314;2022-08-19T00:50:44;24.50;99.90
17715;DHT22;8977;50.902;4.314;2022-08-19T00:53:14;24.50;99.90
17715;DHT22;8977;50.902;4.314;2022-08-19T00:55:45;24.50;99.90
17715;DHT22;8977;50.902;4.314;2022-08-19T00:58:17;24.50;99.90
17715;DHT22;8977;50.902;4.314;2022-08-19T01:00:47;24.50;99.90
17715;DHT22;8977;50.902;4.314;2022-08-19T01:03:16;24.50;99.90
17715;DHT22;8977;50.902;4.314;2022-08-19T01:05:44;24.40;99.90
17715;DHT22;8977;50.902;4.314;2022-08-19T01:08:14;24.40;99.90
17715;DHT22;8977;50.902;4.314;2022-08-19T01:10:48;24.50;99.90
17715;DHT22;8977;50.902;4.314;2022-08-19T01:13:16;24.50;99.90
17715;DHT22;8977;50.902;4.314;2022-08-19T01:15:52;24.40;99.90
17715;DHT22;8977;50.902;4.314;2022-08-19T01:18:21;24.40;99.90
17715;DHT22;8977;50.902;4.314;2022-08-19T01:20:48;24.40;99.90
17715;DHT22;8977;50.902;4.314;2022-08-19T01:23:16;24.40;99.90
17715;DHT22;8977;50.902;4.314;2022-08-19T01:25:46;24.40;99.90
17715;DHT22;8977;50.902;4.314;2022-08-19T01:28:17;24.30;99.90
17715;DHT22;8977;50.902;4.314;2022-08-19T01:30:45;24.30;99.90
17715;DHT22;8977;50.902;4.314;2022-08-19T01:33:13;24.30;99.90
17715;DHT22;8977;50.902;4.314;2022-08-19T01:35:41;24.30;99.90
17715;DHT22;8977;50.902;4.314;2022-08-19T01:38:10;24.40;99.90
17715;DHT22;8977;50.902;4.314;2022-08-19T01:40:39;24.30;99.90
17715;DHT22;8977;50.902;4.314;2022-08-19T01:43:07;24.30;99.90
17715;DHT22;8977;50.902;4.314;2022-08-19T01:45:35;24.30;99.90
17715;DHT22;8977;50.902;4.314;2022-08-19T01:48:03;24.30;99.90
17715;DHT22;8977;50.902;4.314;2022-08-19T01:50:31;24.30;99.90
17715;DHT22;8977;50.902;4.314;2022-08-19T01:52:58;24.30;99.90
17715;DHT22;8977;50.902;4.314;2022-08-19T01:55:26;24.30;99.90
17715;DHT22;8977;50.902;4.314;2022-08-19T01:57:56;24.30;99.90
17715;DHT22;8977;50.902;4.314;2022-08-19T02:00:26;24.20;99.90
17715;DHT22;8977;50.902;4.314;2022-08-19T02:02:54;24.20;99.90
17715;DHT22;8977;50.902;4.314;2022-08-19T02:05:22;24.20;99.90
17715;DHT22;8977;50.902;4.314;2022-08-19T02:07:49;24.10;99.90
17715;DHT22;8977;50.902;4.314;2022-08-19T02:10:20;24.10;99.90
17715;DHT22;8977;50.902;4.314;2022-08-19T02:12:48;24.10;99.90
17715;DHT22;8977;50.902;4.314;2022-08-19T02:15:17;24.20;99.90
17715;DHT22;8977;50.902;4.314;2022-08-19T02:17:46;24.10;99.90
17715;DHT22;8977;50.902;4.314;2022-08-19T02:20:13;24.00;99.90
17715;DHT22;8977;50.902;4.314;2022-08-19T02:22:40;24.10;99.90
17715;DHT22;8977;50.902;4.314;2022-08-19T02:25:09;24.00;99.90
17715;DHT22;8977;50.902;4.314;2022-08-19T02:27:36;24.00;99.90
17715;DHT22;8977;50.902;4.314;2022-08-19T02:30:06;24.00;99.90
17715;DHT22;8977;50.902;4.314;2022-08-19T02:32:35;24.00;99.90
17715;DHT22;8977;50.902;4.314;2022-08-19T02:35:02;24.00;99.90
17715;DHT22;8977;50.902;4.314;2022-08-19T02:37:29;23.90;99.90
17715;DHT22;8977;50.902;4.314;2022-08-19T02:40:13;23.90;99.90
17715;DHT22;8977;50.902;4.314;2022-08-19T02:42:40;23.90;99.90
17715;DHT22;8977;50.902;4.314;2022-08-19T02:45:09;23.90;99.90
17715;DHT22;8977;50.902;4.314;2022-08-19T02:47:37;23.80;99.90
17715;DHT22;8977;50.902;4.314;2022-08-19T02:50:05;23.90;99.90
17715;DHT22;8977;50.902;4.314;2022-08-19T02:52:33;23.80;99.90
17715;DHT22;8977;50.902;4.314;2022-08-19T02:55:01;23.70;99.90
17715;DHT22;8977;50.902;4.314;2022-08-19T02:57:30;23.70;99.90
17715;DHT22;8977;50.902;4.314;2022-08-19T02:59:58;23.70;99.90
17715;DHT22;8977;50.902;4.314;2022-08-19T03:02:25;23.70;99.90
17715;DHT22;8977;50.902;4.314;2022-08-19T03:04:54;23.70;99.90
17715;DHT22;8977;50.902;4.314;2022-08-19T03:07:21;23.70;99.90
17715;DHT22;8977;50.902;4.314;2022-08-19T03:09:48;23.60;99.90
17715;DHT22;8977;50.902;4.314;2022-08-19T03:12:14;23.60;99.90
17715;DHT22;8977;50.902;4.314;2022-08-19T03:14:41;23.60;99.90
17715;DHT22;8977;50.902;4.314;2022-08-19T03:17:08;23.60;99.90
17715;DHT22;8977;50.902;4.314;2022-08-19T03:19:35;23.60;99.90
17715;DHT22;8977;50.902;4.314;2022-08-19T03:22:05;23.60;99.90
17715;DHT22;8977;50.902;4.314;2022-08-19T03:24:32;23.60;99.90
17715;DHT22;8977;50.902;4.314;2022-08-19T03:26:59;23.60;99.90
17715;DHT22;8977;50.902;4.314;2022-08-19T03:29:30;23.50;99.90
17715;DHT22;8977;50.902;4.314;2022-08-19T03:31:58;23.50;99.90
17715;DHT22;8977;50.902;4.314;2022-08-19T03:34:29;23.50;99.90
17715;DHT22;8977;50.902;4.314;2022-08-19T03:36:59;23.50;99.90
17715;DHT22;8977;50.902;4.314;2022-08-19T03:39:27;23.40;99.90
17715;DHT22;8977;50.902;4.314;2022-08-19T03:41:55;23.40;99.90
17715;DHT22;8977;50.902;4.314;2022-08-19T03:44:23;23.40;99.90
17715;DHT22;8977;50.902;4.314;2022-08-19T03:46:53;23.30;99.90
17715;DHT22;8977;50.902;4.314;2022-08-19T03:49:21;23.30;99.90
17715;DHT22;8977;50.902;4.314;2022-08-19T03:51:49;23.30;99.90
17715;DHT22;8977;50.902;4.314;2022-08-19T03:54:19;23.30;99.90
17715;DHT22;8977;50.902;4.314;2022-08-19T03:56:49;23.30;99.90
17715;DHT22;8977;50.902;4.314;2022-08-19T03:59:18;23.20;99.90
17715;DHT22;8977;50.902;4.314;2022-08-19T04:01:45;23.20;99.90
17715;DHT22;8977;50.902;4.314;2022-08-19T04:04:12;23.20;99.90
17715;DHT22;8977;50.902;4.314;2022-08-19T04:06:39;23.20;99.90
17715;DHT22;8977;50.902;4.314;2022-08-19T04:09:09;23.30;99.90
17715;DHT22;8977;50.902;4.314;2022-08-19T04:11:39;23.20;99.90
17715;DHT22;8977;50.902;4.314;2022-08-19T04:14:09;23.10;99.90
17715;DHT22;8977;50.902;4.314;2022-08-19T04:16:36;23.20;99.90
17715;DHT22;8977;50.902;4.314;2022-08-19T04:19:04;23.20;99.90
17715;DHT22;8977;50.902;4.314;2022-08-19T04:21:32;23.10;99.90
17715;DHT22;8977;50.902;4.314;2022-08-19T04:23:59;23.10;99.90
17715;DHT22;8977;50.902;4.314;2022-08-19T04:26:28;23.20;99.90
17715;DHT22;8977;50.902;4.314;2022-08-19T04:28:58;23.10;99.90
17715;DHT22;8977;50.902;4.314;2022-08-19T04:31:29;23.10;99.90
17715;DHT22;8977;50.902;4.314;2022-08-19T04:33:58;23.10;99.90
17715;DHT22;8977;50.902;4.314;2022-08-19T04:36:27;23.10;99.90
17715;DHT22;8977;50.902;4.314;2022-08-19T04:38:56;23.10;99.90
17715;DHT22;8977;50.902;4.314;2022-08-19T04:41:23;23.00;99.90
17715;DHT22;8977;50.902;4.314;2022-08-19T04:44:08;23.00;99.90
17715;DHT22;8977;50.902;4.314;2022-08-19T04:46:37;23.00;99.90
17715;DHT22;8977;50.902;4.314;2022-08-19T04:49:05;22.90;99.90
17715;DHT22;8977;50.902;4.314;2022-08-19T04:51:33;22.90;99.90
17715;DHT22;8977;50.902;4.314;2022-08-19T04:54:02;22.80;99.90
17715;DHT22;8977;50.902;4.314;2022-08-19T04:56:29;22.80;99.90
17715;DHT22;8977;50.902;4.314;2022-08-19T04:58:57;22.80;99.90
17715;DHT22;8977;50.902;4.314;2022-08-19T05:01:28;22.80;99.90
17715;DHT22;8977;50.902;4.314;2022-08-19T05:03:57;22.90;99.90
17715;DHT22;8977;50.902;4.314;2022-08-19T05:06:26;22.90;99.90
17715;DHT22;8977;50.902;4.314;2022-08-19T05:08:54;22.80;99.90
17715;DHT22;8977;50.902;4.314;2022-08-19T05:11:25;22.80;99.90
17715;DHT22;8977;50.902;4.314;2022-08-19T05:13:53;22.90;99.90
17715;DHT22;8977;50.902;4.314;2022-08-19T05:16:21;22.90;99.90
17715;DHT22;8977;50.902;4.314;2022-08-19T05:18:49;22.90;99.90
17715;DHT22;8977;50.902;4.314;2022-08-19T05:21:35;22.90;99.90
17715;DHT22;8977;50.902;4.314;2022-08-19T05:24:22;22.90;99.90
17715;DHT22;8977;50.902;4.314;2022-08-19T05:26:52;23.00;99.90
17715;DHT22;8977;50.902;4.314;2022-08-19T05:29:23;23.00;99.90
17715;DHT22;8977;50.902;4.314;2022-08-19T05:31:51;23.00;99.90
17715;DHT22;8977;50.902;4.314;2022-08-19T05:34:19;23.00;99.90
17715;DHT22;8977;50.902;4.314;2022-08-19T05:36:50;22.90;99.90
17715;DHT22;8977;50.902;4.314;2022-08-19T05:39:23;22.90;99.90
17715;DHT22;8977;50.902;4.314;2022-08-19T05:41:52;22.90;99.90
17715;DHT22;8977;50.902;4.314;2022-08-19T05:44:20;22.90;99.90
17715;DHT22;8977;50.902;4.314;2022-08-19T05:46:48;22.90;99.90
17715;DHT22;8977;50.902;4.314;2022-08-19T05:49:19;22.90;99.90
17715;DHT22;8977;50.902;4.314;2022-08-19T05:51:47;22.90;99.90
17715;DHT22;8977;50.902;4.314;2022-08-19T05:54:15;23.00;99.90
17715;DHT22;8977;50.902;4.314;2022-08-19T05:56:43;23.00;99.90
17715;DHT22;8977;50.902;4.314;2022-08-19T05:59:15;23.00;99.90
17715;DHT22;8977;50.902;4.314;2022-08-19T06:01:45;23.00;99.90
17715;DHT22;8977;50.902;4.314;2022-08-19T06:04:12;23.00;99.90
17715;DHT22;8977;50.902;4.314;2022-08-19T06:06:40;23.00;99.90
17715;DHT22;8977;50.902;4.314;2022-08-19T06:09:08;23.00;99.90
17715;DHT22;8977;50.902;4.314;2022-08-19T06:11:39;22.90;99.90
17715;DHT22;8977;50.902;4.314;2022-08-19T06:14:08;23.10;99.90
17715;DHT22;8977;50.902;4.314;2022-08-19T06:16:37;23.00;99.90
17715;DHT22;8977;50.902;4.314;2022-08-19T06:19:06;23.00;99.90
17715;DHT22;8977;50.902;4.314;2022-08-19T06:21:35;23.00;99.90
17715;DHT22;8977;50.902;4.314;2022-08-19T06:24:05;23.00;99.90
17715;DHT22;8977;50.902;4.314;2022-08-19T06:26:33;23.00;99.90
17715;DHT22;8977;50.902;4.314;2022-08-19T06:29:03;23.00;99.90
17715;DHT22;8977;50.902;4.314;2022-08-19T06:31:32;23.00;99.90
17715;DHT22;8977;50.902;4.314;2022-08-19T06:34:00;23.10;99.90
17715;DHT22;8977;50.902;4.314;2022-08-19T06:36:30;23.10;99.90
17715;DHT22;8977;50.902;4.314;2022-08-19T06:39:00;23.10;99.90
17715;DHT22;8977;50.902;4.314;2022-08-19T06:41:28;23.10;99.90
17715;DHT22;8977;50.902;4.314;2022-08-19T06:43:57;23.10;99.90
17715;DHT22;8977;50.902;4.314;2022-08-19T06:46:26;23.10;99.90
17715;DHT22;8977;50.902;4.314;2022-08-19T06:48:53;23.20;99.90
17715;DHT22;8977;50.902;4.314;2022-08-19T06:51:21;23.20;99.90
17715;DHT22;8977;50.902;4.314;2022-08-19T06:53:50;23.20;99.90
17715;DHT22;8977;50.902;4.314;2022-08-19T06:56:19;23.20;99.90
17715;DHT22;8977;50.902;4.314;2022-08-19T06:58:47;23.30;99.90
17715;DHT22;8977;50.902;4.314;2022-08-19T07:01:16;23.30;99.90
17715;DHT22;8977;50.902;4.314;2022-08-19T07:03:44;23.30;99.90
17715;DHT22;8977;50.902;4.314;2022-08-19T07:06:16;23.20;99.90
17715;DHT22;8977;50.902;4.314;2022-08-19T07:08:45;23.10;99.90
17715;DHT22;8977;50.902;4.314;2022-08-19T07:11:18;23.30;99.90
17715;DHT22;8977;50.902;4.314;2022-08-19T07:13:46;23.20;99.90
17715;DHT22;8977;50.902;4.314;2022-08-19T07:16:16;23.30;99.90
17715;DHT22;8977;50.902;4.314;2022-08-19T07:18:46;23.20;99.90
17715;DHT22;8977;50.902;4.314;2022-08-19T07:21:18;23.20;99.90
17715;DHT22;8977;50.902;4.314;2022-08-19T07:23:46;23.30;99.90
17715;DHT22;8977;50.902;4.314;2022-08-19T07:26:18;23.30;99.90
17715;DHT22;8977;50.902;4.314;2022-08-19T07:28:46;23.30;99.90
17715;DHT22;8977;50.902;4.314;2022-08-19T07:31:14;23.40;99.90
17715;DHT22;8977;50.902;4.314;2022-08-19T07:33:43;23.30;99.90
17715;DHT22;8977;50.902;4.314;2022-08-19T07:36:13;23.40;99.90
17715;DHT22;8977;50.902;4.314;2022-08-19T07:38:41;23.40;99.90
17715;DHT22;8977;50.902;4.314;2022-08-19T07:41:10;23.30;99.90
17715;DHT22;8977;50.902;4.314;2022-08-19T07:43:38;23.40;99.90
17715;DHT22;8977;50.902;4.314;2022-08-19T07:46:06;23.40;99.90
17715;DHT22;8977;50.902;4.314;2022-08-19T07:48:33;23.30;99.90
17715;DHT22;8977;50.902;4.314;2022-08-19T07:51:02;23.40;99.90
17715;DHT22;8977;50.902;4.314;2022-08-19T07:53:32;23.50;99.90
17715;DHT22;8977;50.902;4.314;2022-08-19T07:55:59;23.50;99.90
17715;DHT22;8977;50.902;4.314;2022-08-19T07:58:30;23.50;99.90
17715;DHT22;8977;50.902;4.314;2022-08-19T08:00:57;23.70;99.90
17715;DHT22;8977;50.902;4.314;2022-08-19T08:03:25;23.60;99.90
17715;DHT22;8977;50.902;4.314;2022-08-19T08:06:06;23.60;99.90
17715;DHT22;8977;50.902;4.314;2022-08-19T08:08:52;23.60;99.90
17715;DHT22;8977;50.902;4.314;2022-08-19T08:11:37;23.60;99.90
17715;DHT22;8977;50.902;4.314;2022-08-19T08:14:04;23.70;99.90
17715;DHT22;8977;50.902;4.314;2022-08-19T08:16:34;23.70;99.90
17715;DHT22;8977;50.902;4.314;2022-08-19T08:19:02;23.60;99.90
17715;DHT22;8977;50.902;4.314;2022-08-19T08:21:30;23.60;99.90
17715;DHT22;8977;50.902;4.314;2022-08-19T08:23:59;23.70;99.90
17715;DHT22;8977;50.902;4.314;2022-08-19T08:26:26;23.80;99.90
17715;DHT22;8977;50.902;4.314;2022-08-19T08:28:53;24.00;99.90
17715;DHT22;8977;50.902;4.314;2022-08-19T08:31:20;24.00;99.90
17715;DHT22;8977;50.902;4.314;2022-08-19T08:33:48;23.90;99.90
17715;DHT22;8977;50.902;4.314;2022-08-19T08:36:16;23.90;99.90
17715;DHT22;8977;50.902;4.314;2022-08-19T08:38:44;23.90;99.90
17715;DHT22;8977;50.902;4.314;2022-08-19T08:41:21;24.00;99.90
17715;DHT22;8977;50.902;4.314;2022-08-19T08:43:50;23.90;99.90
17715;DHT22;8977;50.902;4.314;2022-08-19T08:46:24;23.90;99.90
17715;DHT22;8977;50.902;4.314;2022-08-19T08:48:57;23.90;99.90
17715;DHT22;8977;50.902;4.314;2022-08-19T08:51:28;23.90;99.90
17715;DHT22;8977;50.902;4.314;2022-08-19T08:53:56;24.00;99.90
17715;DHT22;8977;50.902;4.314;2022-08-19T08:56:25;24.00;99.90
17715;DHT22;8977;50.902;4.314;2022-08-19T08:58:57;24.10;99.90
17715;DHT22;8977;50.902;4.314;2022-08-19T09:01:24;24.00;99.90
17715;DHT22;8977;50.902;4.314;2022-08-19T09:03:52;24.10;99.90
17715;DHT22;8977;50.902;4.314;2022-08-19T09:06:25;24.00;99.90
17715;DHT22;8977;50.902;4.314;2022-08-19T09:09:04;24.20;99.90
17715;DHT22;8977;50.902;4.314;2022-08-19T09:11:46;24.10;99.90
17715;DHT22;8977;50.902;4.314;2022-08-19T09:14:21;24.00;99.90
17715;DHT22;8977;50.902;4.314;2022-08-19T09:16:51;24.00;99.90
17715;DHT22;8977;50.902;4.314;2022-08-19T09:19:18;24.00;99.90
17715;DHT22;8977;50.902;4.314;2022-08-19T09:21:44;24.10;99.90
17715;DHT22;8977;50.902;4.314;2022-08-19T09:24:12;24.10;99.90
17715;DHT22;8977;50.902;4.314;2022-08-19T09:26:40;24.20;99.90
17715;DHT22;8977;50.902;4.314;2022-08-19T09:29:09;24.10;99.90
17715;DHT22;8977;50.902;4.314;2022-08-19T09:31:36;24.10;99.90
17715;DHT22;8977;50.902;4.314;2022-08-19T09:34:03;24.20;99.90
17715;DHT22;8977;50.902;4.314;2022-08-19T09:36:31;24.20;99.90
17715;DHT22;8977;50.902;4.314;2022-08-19T09:39:02;24.30;99.90
17715;DHT22;8977;50.902;4.314;2022-08-19T09:41:29;24.30;99.90
17715;DHT22;8977;50.902;4.314;2022-08-19T09:43:58;24.30;99.90
17715;DHT22;8977;50.902;4.314;2022-08-19T09:46:27;24.20;99.90
17715;DHT22;8977;50.902;4.314;2022-08-19T09:48:58;24.20;99.90
17715;DHT22;8977;50.902;4.314;2022-08-19T09:51:26;24.20;99.90
17715;DHT22;8977;50.902;4.314;2022-08-19T09:53:58;24.30;99.90
17715;DHT22;8977;50.902;4.314;2022-08-19T09:56:25;24.30;99.90
17715;DHT22;8977;50.902;4.314;2022-08-19T09:58:52;24.30;99.90
17715;DHT22;8977;50.902;4.314;2022-08-19T10:01:22;24.30;99.90
17715;DHT22;8977;50.902;4.314;2022-08-19T10:03:51;24.40;99.90
17715;DHT22;8977;50.902;4.314;2022-08-19T10:06:20;24.50;99.90
17715;DHT22;8977;50.902;4.314;2022-08-19T10:08:47;24.50;99.90
17715;DHT22;8977;50.902;4.314;2022-08-19T10:11:14;24.50;99.90
17715;DHT22;8977;50.902;4.314;2022-08-19T10:13:43;24.50;99.90
17715;DHT22;8977;50.902;4.314;2022-08-19T10:16:11;24.50;99.90
17715;DHT22;8977;50.902;4.314;2022-08-19T10:18:40;24.60;99.90
17715;DHT22;8977;50.902;4.314;2022-08-19T10:21:12;24.60;99.90
17715;DHT22;8977;50.902;4.314;2022-08-19T10:23:42;24.50;99.90
17715;DHT22;8977;50.902;4.314;2022-08-19T10:26:11;24.50;99.90
17715;DHT22;8977;50.902;4.314;2022-08-19T10:28:38;24.50;99.90
17715;DHT22;8977;50.902;4.314;2022-08-19T10:31:06;24.40;99.90
17715;DHT22;8977;50.902;4.314;2022-08-19T10:33:34;24.30;99.90
17715;DHT22;8977;50.902;4.314;2022-08-19T10:36:08;24.50;99.90
17715;DHT22;8977;50.902;4.314;2022-08-19T10:38:36;24.50;99.90
17715;DHT22;8977;50.902;4.314;2022-08-19T10:41:07;24.50;99.90
17715;DHT22;8977;50.902;4.314;2022-08-19T10:43:34;24.40;99.90
17715;DHT22;8977;50.902;4.314;2022-08-19T10:46:04;24.40;99.90
17715;DHT22;8977;50.902;4.314;2022-08-19T10:48:31;24.50;99.90
17715;DHT22;8977;50.902;4.314;2022-08-19T10:50:59;24.30;99.90
17715;DHT22;8977;50.902;4.314;2022-08-19T10:53:44;24.40;99.90
17715;DHT22;8977;50.902;4.314;2022-08-19T10:56:11;24.40;99.90
17715;DHT22;8977;50.902;4.314;2022-08-19T10:58:56;24.40;99.90
17715;DHT22;8977;50.902;4.314;2022-08-19T11:01:24;24.40;99.90
17715;DHT22;8977;50.902;4.314;2022-08-19T11:03:51;24.40;99.90
17715;DHT22;8977;50.902;4.314;2022-08-19T11:06:18;24.30;99.90
17715;DHT22;8977;50.902;4.314;2022-08-19T11:08:47;24.50;99.90
17715;DHT22;8977;50.902;4.314;2022-08-19T11:11:14;24.40;99.90
17715;DHT22;8977;50.902;4.314;2022-08-19T11:13:41;24.50;99.90
17715;DHT22;8977;50.902;4.314;2022-08-19T11:16:11;24.50;99.90
17715;DHT22;8977;50.902;4.314;2022-08-19T11:18:41;24.50;99.90
17715;DHT22;8977;50.902;4.314;2022-08-19T11:21:11;24.50;99.90
17715;DHT22;8977;50.902;4.314;2022-08-19T11:23:39;24.40;99.90
17715;DHT22;8977;50.902;4.314;2022-08-19T11:26:07;24.50;99.90
17715;DHT22;8977;50.902;4.314;2022-08-19T11:28:35;24.50;99.90
17715;DHT22;8977;50.902;4.314;2022-08-19T11:31:02;24.60;99.90
17715;DHT22;8977;50.902;4.314;2022-08-19T11:33:29;24.60;99.90
17715;DHT22;8977;50.902;4.314;2022-08-19T11:35:57;24.60;99.90
17715;DHT22;8977;50.902;4.314;2022-08-19T11:38:25;24.70;99.90
17715;DHT22;8977;50.902;4.314;2022-08-19T11:40:56;24.70;99.90
17715;DHT22;8977;50.902;4.314;2022-08-19T11:43:24;24.70;99.90
17715;DHT22;8977;50.902;4.314;2022-08-19T11:45:52;24.70;99.90
17715;DHT22;8977;50.902;4.314;2022-08-19T11:48:19;24.70;99.90
17715;DHT22;8977;50.902;4.314;2022-08-19T11:50:47;24.70;99.90
17715;DHT22;8977;50.902;4.314;2022-08-19T11:53:15;24.60;99.90
17715;DHT22;8977;50.902;4.314;2022-08-19T11:55:42;24.70;99.90
17715;DHT22;8977;50.902;4.314;2022-08-19T11:58:10;24.90;99.90
17715;DHT22;8977;50.902;4.314;2022-08-19T12:00:39;24.90;99.90
17715;DHT22;8977;50.902;4.314;2022-08-19T12:03:07;24.90;99.90
17715;DHT22;8977;50.902;4.314;2022-08-19T12:05:36;25.00;99.90
17715;DHT22;8977;50.902;4.314;2022-08-19T12:08:03;25.00;99.90
17715;DHT22;8977;50.902;4.314;2022-08-19T12:10:30;25.00;99.90
17715;DHT22;8977;50.902;4.314;2022-08-19T12:12:57;25.10;99.90
17715;DHT22;8977;50.902;4.314;2022-08-19T12:15:24;25.10;99.90
17715;DHT22;8977;50.902;4.314;2022-08-19T12:17:54;25.10;99.90
17715;DHT22;8977;50.902;4.314;2022-08-19T12:20:22;25.20;99.90
17715;DHT22;8977;50.902;4.314;2022-08-19T12:22:49;25.20;99.90
17715;DHT22;8977;50.902;4.314;2022-08-19T12:25:16;25.20;99.90
17715;DHT22;8977;50.902;4.314;2022-08-19T12:27:43;25.30;99.90
17715;DHT22;8977;50.902;4.314;2022-08-19T12:30:12;25.30;99.90
17715;DHT22;8977;50.902;4.314;2022-08-19T12:32:40;25.30;99.90
17715;DHT22;8977;50.902;4.314;2022-08-19T12:35:10;25.30;99.90
17715;DHT22;8977;50.902;4.314;2022-08-19T12:37:38;25.40;99.90
17715;DHT22;8977;50.902;4.314;2022-08-19T12:40:11;25.40;99.90
17715;DHT22;8977;50.902;4.314;2022-08-19T12:42:38;25.40;99.90
17715;DHT22;8977;50.902;4.314;2022-08-19T12:45:08;25.40;99.90
17715;DHT22;8977;50.902;4.314;2022-08-19T12:47:35;25.40;99.90
17715;DHT22;8977;50.902;4.314;2022-08-19T12:50:02;25.40;99.90
17715;DHT22;8977;50.902;4.314;2022-08-19T12:52:31;25.50;99.90
17715;DHT22;8977;50.902;4.314;2022-08-19T12:54:58;25.50;99.90
17715;DHT22;8977;50.902;4.314;2022-08-19T12:57:27;25.50;99.90
17715;DHT22;8977;50.902;4.314;2022-08-19T12:59:54;25.60;99.90
17715;DHT22;8977;50.902;4.314;2022-08-19T13:02:21;25.60;99.90
17715;DHT22;8977;50.902;4.314;2022-08-19T13:04:48;25.70;99.90
17715;DHT22;8977;50.902;4.314;2022-08-19T13:07:15;25.70;99.90
17715;DHT22;8977;50.902;4.314;2022-08-19T13:09:43;25.80;99.90
17715;DHT22;8977;50.902;4.314;2022-08-19T13:12:10;26.00;99.90
17715;DHT22;8977;50.902;4.314;2022-08-19T13:14:38;26.10;99.90
17715;DHT22;8977;50.902;4.314;2022-08-19T13:17:05;26.20;99.90
17715;DHT22;8977;50.902;4.314;2022-08-19T13:19:32;26.20;99.90
17715;DHT22;8977;50.902;4.314;2022-08-19T13:21:59;26.20;99.90
17715;DHT22;8977;50.902;4.314;2022-08-19T13:24:26;26.20;99.90
17715;DHT22;8977;50.902;4.314;2022-08-19T13:26:54;26.10;99.90
17715;DHT22;8977;50.902;4.314;2022-08-19T13:29:21;26.10;99.90
17715;DHT22;8977;50.902;4.314;2022-08-19T13:32:06;26.10;99.90
17715;DHT22;8977;50.902;4.314;2022-08-19T13:34:50;26.10;99.90
17715;DHT22;8977;50.902;4.314;2022-08-19T13:37:17;26.10;99.90
17715;DHT22;8977;50.902;4.314;2022-08-19T13:40:05;26.10;99.90
17715;DHT22;8977;50.902;4.314;2022-08-19T13:42:34;26.20;99.90
17715;DHT22;8977;50.902;4.314;2022-08-19T13:45:00;26.20;99.90
17715;DHT22;8977;50.902;4.314;2022-08-19T13:47:27;26.20;99.90
17715;DHT22;8977;50.902;4.314;2022-08-19T13:49:54;26.30;99.90
17715;DHT22;8977;50.902;4.314;2022-08-19T13:52:21;26.30;99.90
17715;DHT22;8977;50.902;4.314;2022-08-19T13:54:48;26.30;99.90
17715;DHT22;8977;50.902;4.314;2022-08-19T13:57:15;26.30;99.90
17715;DHT22;8977;50.902;4.314;2022-08-19T13:59:43;26.20;99.90
17715;DHT22;8977;50.902;4.314;2022-08-19T14:02:10;26.20;99.90
17715;DHT22;8977;50.902;4.314;2022-08-19T14:04:37;26.20;99.90
17715;DHT22;8977;50.902;4.314;2022-08-19T14:07:04;26.10;99.90
17715;DHT22;8977;50.902;4.314;2022-08-19T14:09:31;26.20;99.90
17715;DHT22;8977;50.902;4.314;2022-08-19T14:11:58;25.90;99.90
17715;DHT22;8977;50.902;4.314;2022-08-19T14:14:25;25.70;99.90
17715;DHT22;8977;50.902;4.314;2022-08-19T14:16:53;25.70;99.90
17715;DHT22;8977;50.902;4.314;2022-08-19T14:19:20;25.60;99.90
17715;DHT22;8977;50.902;4.314;2022-08-19T14:21:47;25.60;99.90
17715;DHT22;8977;50.902;4.314;2022-08-19T14:24:14;25.50;99.90
17715;DHT22;8977;50.902;4.314;2022-08-19T14:26:41;25.40;99.90
17715;DHT22;8977;50.902;4.314;2022-08-19T14:29:08;25.40;99.90
17715;DHT22;8977;50.902;4.314;2022-08-19T14:31:35;25.30;99.90
17715;DHT22;8977;50.902;4.314;2022-08-19T14:34:03;25.40;99.90
17715;DHT22;8977;50.902;4.314;2022-08-19T14:36:30;25.40;99.90
17715;DHT22;8977;50.902;4.314;2022-08-19T14:38:59;25.30;99.90
17715;DHT22;8977;50.902;4.314;2022-08-19T14:41:27;25.30;99.90
17715;DHT22;8977;50.902;4.314;2022-08-19T14:43:56;25.30;99.90
17715;DHT22;8977;50.902;4.314;2022-08-19T14:46:25;25.30;99.90
17715;DHT22;8977;50.902;4.314;2022-08-19T14:48:54;25.30;99.90
17715;DHT22;8977;50.902;4.314;2022-08-19T14:51:23;25.40;99.90
17715;DHT22;8977;50.902;4.314;2022-08-19T14:53:52;25.30;99.90
17715;DHT22;8977;50.902;4.314;2022-08-19T14:56:21;25.30;99.90
17715;DHT22;8977;50.902;4.314;2022-08-19T14:58:48;25.40;99.90
17715;DHT22;8977;50.902;4.314;2022-08-19T15:01:17;25.40;99.90
17715;DHT22;8977;50.902;4.314;2022-08-19T15:03:45;25.40;99.90
17715;DHT22;8977;50.902;4.314;2022-08-19T15:06:14;25.40;99.90
17715;DHT22;8977;50.902;4.314;2022-08-19T15:08:42;25.50;99.90
17715;DHT22;8977;50.902;4.314;2022-08-19T15:11:13;25.50;99.90
17715;DHT22;8977;50.902;4.314;2022-08-19T15:13:42;25.70;99.90
17715;DHT22;8977;50.902;4.314;2022-08-19T15:16:09;25.70;99.90
17715;DHT22;8977;50.902;4.314;2022-08-19T15:18:36;25.80;99.90
17715;DHT22;8977;50.902;4.314;2022-08-19T15:21:04;25.90;99.90
17715;DHT22;8977;50.902;4.314;2022-08-19T15:23:32;25.90;99.90
17715;DHT22;8977;50.902;4.314;2022-08-19T15:26:02;25.80;99.90
17715;DHT22;8977;50.902;4.314;2022-08-19T15:28:31;25.80;99.90
17715;DHT22;8977;50.902;4.314;2022-08-19T15:30:58;25.70;99.90
17715;DHT22;8977;50.902;4.314;2022-08-19T15:33:25;25.70;99.90
17715;DHT22;8977;50.902;4.314;2022-08-19T15:35:52;25.70;99.90
17715;DHT22;8977;50.902;4.314;2022-08-19T15:38:19;25.70;99.90
17715;DHT22;8977;50.902;4.314;2022-08-19T15:40:49;25.70;99.90
17715;DHT22;8977;50.902;4.314;2022-08-19T15:43:19;25.60;99.90
17715;DHT22;8977;50.902;4.314;2022-08-19T15:45:47;25.50;99.90
17715;DHT22;8977;50.902;4.314;2022-08-19T15:48:14;25.60;99.90
17715;DHT22;8977;50.902;4.314;2022-08-19T15:50:41;25.50;99.90
17715;DHT22;8977;50.902;4.314;2022-08-19T15:53:09;25.40;99.90
17715;DHT22;8977;50.902;4.314;2022-08-19T15:55:43;25.40;99.90